Time;durP1;ratioP1;P1;durP2;ratioP2;P2;SDS_P1;SDS_P2;PMS_P1;PMS_P2;Temp;Humidity;BMP_temperature;BMP_pressure;BME280_temperature;BME280_humidity;BME280_pressure;Samples;Min_cycle;Max_cycle;Signal;HPM_P1;HPM_P2
2021/08/27 00:01:10;;;;;;;8.65;1.85;;;;;;;10.53;88.33;102078.16;5013946;28;20445;-71
2021/08/27 00:03:35;;;;;;;7.38;1.63;;;;;;;10.57;88.37;102079.66;5013343;28;20026;-71
2021/08/27 00:06:01;;;;;;;6.13;1.52;;;;;;;10.65;89.81;102071.94;5013991;28;20030;-71
2021/08/27 00:08:26;;;;;;;12.60;1.80;;;;;;;10.77;89.82;102076.41;5013481;28;20057;-71
2021/08/27 00:10:52;;;;;;;11.30;2.05;;;;;;;10.92;90.56;102076.25;5013182;28;20037;-71
2021/08/27 00:13:17;;;;;;;10.85;1.80;;;;;;;11.07;90.44;102074.28;5013477;28;20104;-71
2021/08/27 00:15:43;;;;;;;10.90;1.75;;;;;;;11.21;90.28;102066.16;5012988;28;20038;-71
2021/08/27 00:18:08;;;;;;;6.75;1.88;;;;;;;11.33;89.77;102063.53;5013369;28;20467;-71
2021/08/27 00:20:34;;;;;;;9.75;1.95;;;;;;;11.42;89.87;102060.16;5013038;28;20037;-71
2021/08/27 00:22:59;;;;;;;7.63;1.60;;;;;;;11.47;89.66;102063.34;5013472;28;20034;-71
2021/08/27 00:25:25;;;;;;;5.35;1.42;;;;;;;11.45;89.49;102057.31;5013439;28;20033;-71
2021/08/27 00:27:50;;;;;;;14.40;2.00;;;;;;;11.43;89.52;102057.38;5012917;28;20132;-71
2021/08/27 00:30:16;;;;;;;10.95;1.65;;;;;;;11.42;89.26;102052.16;5013476;28;20034;-71
2021/08/27 00:32:41;;;;;;;6.88;1.70;;;;;;;11.41;89.72;102059.31;5012779;28;20045;-71
2021/08/27 00:35:07;;;;;;;7.65;1.42;;;;;;;11.40;89.65;102060.28;5013534;28;20056;-71
2021/08/27 00:37:35;;;;;;;14.35;2.28;;;;;;;11.44;89.97;102055.59;5012632;28;20116;-71
2021/08/27 00:40:01;;;;;;;7.38;2.20;;;;;;;11.51;89.99;102056.84;5013568;28;20042;-71
2021/08/27 00:42:26;;;;;;;8.05;1.75;;;;;;;11.59;89.89;102067.75;5012949;28;20034;-71
2021/08/27 00:44:52;;;;;;;10.98;2.22;;;;;;;11.70;90.42;102076.75;5012629;28;20222;-71
2021/08/27 00:47:17;;;;;;;7.60;1.55;;;;;;;11.82;89.69;102073.16;5012953;28;20034;-71
2021/08/27 00:49:43;;;;;;;14.77;2.13;;;;;;;11.92;89.48;102071.47;5012393;28;20116;-71
2021/08/27 00:52:10;;;;;;;13.60;2.15;;;;;;;12.01;89.55;102069.13;5012982;28;20041;-72
2021/08/27 00:54:37;;;;;;;7.80;1.80;;;;;;;12.04;90.08;102060.88;5012184;28;20034;-72
2021/08/27 00:57:06;;;;;;;16.00;2.35;;;;;;;12.07;89.99;102068.63;5012568;28;20505;-72
2021/08/27 00:59:32;;;;;;;8.90;1.90;;;;;;;12.07;89.81;102073.97;5012873;28;20044;-72
2021/08/27 01:01:57;;;;;;;13.45;2.00;;;;;;;12.09;90.30;102056.91;5012283;28;20030;-72
2021/08/27 01:04:23;;;;;;;7.18;1.90;;;;;;;12.11;90.42;102056.78;5012862;28;20033;-72
2021/08/27 01:07:02;;;;;;;12.05;2.38;;;;;;;12.10;91.15;102063.06;5012019;28;20030;-72
2021/08/27 01:09:39;;;;;;;13.10;2.33;;;;;;;12.08;91.61;102054.34;5012829;28;20026;-72
2021/08/27 01:12:14;;;;;;;10.13;2.13;;;;;;;12.02;91.72;102058.34;5012880;28;20084;-72
2021/08/27 01:14:42;;;;;;;10.13;2.20;;;;;;;11.94;92.03;102058.94;5012207;28;20026;-72
2021/08/27 01:17:13;;;;;;;10.00;2.20;;;;;;;11.88;92.36;102059.34;5012735;28;20032;-72
2021/08/27 01:19:54;;;;;;;14.38;2.67;;;;;;;11.85;92.81;102054.25;5011322;28;20026;-72
2021/08/27 01:22:49;;;;;;;8.27;2.58;;;;;;;11.80;92.87;102056.44;5012604;28;20029;-72
2021/08/27 01:25:18;;;;;;;11.82;2.40;;;;;;;11.71;93.31;102059.81;5013006;28;20029;-72
2021/08/27 01:27:47;;;;;;;12.00;2.30;;;;;;;11.59;93.10;102058.91;5012605;28;20034;-72
2021/08/27 01:30:16;;;;;;;11.80;2.45;;;;;;;11.47;93.09;102052.69;5012987;28;20038;-72
2021/08/27 01:32:55;;;;;;;12.88;2.08;;;;;;;11.34;93.09;102054.56;5012005;28;20026;-72
2021/08/27 01:35:23;;;;;;;16.25;2.40;;;;;;;11.25;93.78;102054.28;5013264;28;20034;-72
2021/08/27 01:37:51;;;;;;;13.93;2.50;;;;;;;11.14;93.67;102054.25;5012671;28;20076;-73
2021/08/27 01:40:18;;;;;;;14.65;2.30;;;;;;;11.04;93.89;102056.72;5015149;28;20030;-72
2021/08/27 01:42:46;;;;;;;9.20;2.38;;;;;;;10.95;94.35;102060.06;5012435;28;20466;-72
2021/08/27 01:45:13;;;;;;;13.98;2.45;;;;;;;10.87;94.39;102057.97;5012355;28;20083;-72
2021/08/27 01:47:39;;;;;;;11.38;2.33;;;;;;;10.79;94.50;102057.66;5012263;28;20433;-72
2021/08/27 01:50:05;;;;;;;15.38;3.15;;;;;;;10.71;94.66;102068.00;5012405;28;20038;-72
2021/08/27 01:52:33;;;;;;;12.30;2.70;;;;;;;10.65;94.59;102057.81;5012487;28;20030;-72
2021/08/27 01:54:58;;;;;;;15.95;3.03;;;;;;;10.64;94.92;102064.91;5011580;28;20037;-72
2021/08/27 01:57:27;;;;;;;17.15;2.70;;;;;;;10.60;95.14;102060.81;5012148;28;20037;-72
2021/08/27 01:59:52;;;;;;;18.02;2.80;;;;;;;10.55;95.31;102062.91;5011814;28;20117;-72
2021/08/27 02:02:20;;;;;;;15.13;3.00;;;;;;;10.55;95.64;102057.59;5012330;28;20485;-72
2021/08/27 02:04:54;;;;;;;16.75;3.15;;;;;;;10.52;95.64;102061.31;5011606;28;20030;-73
2021/08/27 02:07:19;;;;;;;16.05;2.80;;;;;;;10.46;95.75;102064.41;5012264;28;20026;-72
2021/08/27 02:09:45;;;;;;;15.20;2.88;;;;;;;10.42;95.87;102065.63;5011533;28;20041;-73
2021/08/27 02:12:13;;;;;;;16.48;2.47;;;;;;;10.37;95.86;102065.06;5012208;28;20030;-72
2021/08/27 02:14:39;;;;;;;16.27;2.97;;;;;;;10.30;95.84;102072.63;5012336;28;20455;-72
2021/08/27 02:17:09;;;;;;;17.30;2.70;;;;;;;10.27;95.89;102069.31;5011643;28;20049;-72
2021/08/27 02:19:36;;;;;;;10.35;2.50;;;;;;;10.20;95.92;102069.72;5011883;28;20116;-72
2021/08/27 02:22:04;;;;;;;9.40;2.30;;;;;;;10.12;95.64;102072.09;5011510;28;20069;-72
2021/08/27 02:24:34;;;;;;;16.52;3.10;;;;;;;10.09;95.52;102074.09;5012465;28;20034;-72
2021/08/27 02:27:01;;;;;;;11.73;2.97;;;;;;;10.05;95.37;102076.13;5011531;28;20030;-73
2021/08/27 02:29:30;;;;;;;19.70;3.70;;;;;;;10.03;95.62;102072.69;5011987;28;20034;-72
2021/08/27 02:32:01;;;;;;;20.13;2.83;;;;;;;10.01;95.76;102077.28;5014624;28;20076;-72
2021/08/27 02:34:28;;;;;;;19.30;3.28;;;;;;;9.96;95.72;102082.06;5015647;28;20553;-72
2021/08/27 02:36:56;;;;;;;18.65;3.45;;;;;;;9.97;95.89;102081.09;5014628;28;20040;-72
2021/08/27 02:39:24;;;;;;;20.90;3.42;;;;;;;9.96;96.06;102076.75;5015454;28;20052;-72
2021/08/27 02:41:51;;;;;;;20.75;3.38;;;;;;;9.88;96.18;102078.13;5014567;28;20466;-73
2021/08/27 02:44:16;;;;;;;17.52;3.20;;;;;;;9.85;96.08;102080.13;5015136;28;20060;-72
2021/08/27 02:46:42;;;;;;;13.43;3.00;;;;;;;9.86;96.34;102082.69;5015742;28;20034;-72
2021/08/27 02:49:07;;;;;;;14.13;3.15;;;;;;;9.84;96.27;102083.75;5014356;28;20125;-72
2021/08/27 02:51:50;;;;;;;9.45;2.65;;;;;;;9.77;96.50;102082.47;5015031;28;20418;-72
2021/08/27 02:54:20;;;;;;;10.00;2.17;;;;;;;9.71;96.30;102081.91;5015209;28;20042;-72
2021/08/27 02:56:49;;;;;;;12.68;2.83;;;;;;;9.69;96.13;102082.97;5015266;28;20119;-72
2021/08/27 02:59:18;;;;;;;13.15;2.90;;;;;;;9.68;96.28;102075.97;5015012;28;20026;-72
2021/08/27 03:01:52;;;;;;;11.98;2.67;;;;;;;9.67;96.47;102077.78;5015073;28;20079;-72
2021/08/27 03:04:47;;;;;;;12.38;2.75;;;;;;;9.62;96.53;102073.72;5015065;28;20034;-73
2021/08/27 03:07:15;;;;;;;9.98;2.88;;;;;;;9.59;96.48;102077.41;5013111;28;20109;-73
2021/08/27 03:09:54;;;;;;;13.98;3.17;;;;;;;9.58;96.56;102074.88;5014688;28;20034;-72
2021/08/27 03:12:28;;;;;;;10.85;2.67;;;;;;;9.57;96.83;102081.13;5014949;28;20068;-72
2021/08/27 03:14:58;;;;;;;17.08;3.30;;;;;;;9.54;96.79;102071.56;5014308;28;20104;-73
2021/08/27 03:17:28;;;;;;;22.05;3.33;;;;;;;9.50;96.74;102086.84;5014802;28;20080;-72
2021/08/27 03:19:59;;;;;;;12.25;2.90;;;;;;;9.47;96.96;102083.56;5014124;28;20053;-73
2021/08/27 03:22:29;;;;;;;22.35;3.88;;;;;;;9.48;96.99;102078.16;5014567;28;20037;-72
2021/08/27 03:24:59;;;;;;;17.90;4.13;;;;;;;9.57;97.10;102074.03;5013815;28;20168;-72
2021/08/27 03:27:29;;;;;;;34.40;5.10;;;;;;;9.72;97.46;102077.47;5014430;28;20034;-72
2021/08/27 03:30:00;;;;;;;32.05;3.90;;;;;;;9.86;97.66;102073.88;5013780;28;20053;-73
2021/08/27 03:32:26;;;;;;;20.58;3.75;;;;;;;9.96;97.71;102072.28;5014520;28;20026;-72
2021/08/27 03:34:52;;;;;;;15.27;3.30;;;;;;;10.07;97.87;102068.88;4997174;28;20462;-72
2021/08/27 03:37:19;;;;;;;20.55;3.60;;;;;;;10.10;98.00;102071.31;5014175;28;20034;-72
2021/08/27 03:39:46;;;;;;;17.40;3.40;;;;;;;10.19;97.93;102078.66;4996841;28;20482;-72
2021/08/27 03:42:16;;;;;;;21.85;3.08;;;;;;;10.28;97.71;102076.34;5012870;28;20096;-72
2021/08/27 03:44:43;;;;;;;16.80;3.05;;;;;;;10.38;98.35;102083.59;5014064;28;20022;-72
2021/08/27 03:47:11;;;;;;;20.00;3.45;;;;;;;10.47;98.17;102078.59;5013640;28;20466;-72
2021/08/27 03:49:36;;;;;;;18.63;2.90;;;;;;;10.53;98.21;102084.31;5013922;28;20041;-72
2021/08/27 03:52:02;;;;;;;12.95;2.33;;;;;;;10.55;98.25;102086.88;5013496;28;20034;-72
2021/08/27 03:54:28;;;;;;;13.25;2.63;;;;;;;10.55;97.86;102081.56;5014168;28;20045;-72
2021/08/27 03:56:54;;;;;;;12.68;2.53;;;;;;;10.59;97.98;102085.69;4996218;28;20104;-72
2021/08/27 03:59:21;;;;;;;15.73;3.15;;;;;;;10.65;98.25;102085.25;5013381;28;20033;-72
2021/08/27 04:01:47;;;;;;;15.00;2.92;;;;;;;10.71;97.95;102089.31;5013850;28;20048;-73
2021/08/27 04:04:19;;;;;;;15.75;3.53;;;;;;;10.77;97.86;102084.38;5013048;28;20092;-72
2021/08/27 04:06:52;;;;;;;18.38;4.25;;;;;;;10.83;98.11;102080.44;5014137;28;20040;-73
2021/08/27 04:09:17;;;;;;;23.77;2.80;;;;;;;10.91;98.20;102083.41;5013154;28;20053;-72
2021/08/27 04:11:42;;;;;;;18.90;2.92;;;;;;;10.97;97.88;102082.09;5013762;28;20326;-72
2021/08/27 04:14:08;;;;;;;18.38;3.90;;;;;;;10.99;98.05;102087.31;5013107;28;20433;-73
2021/08/27 04:16:33;;;;;;;10.05;2.47;;;;;;;10.96;97.55;102085.72;5013424;28;20450;-73
2021/08/27 04:18:58;;;;;;;17.65;2.53;;;;;;;10.92;97.25;102086.91;5013185;28;20439;-75
2021/08/27 04:21:24;;;;;;;16.90;2.63;;;;;;;10.85;97.00;102086.50;5013404;28;20394;-72
2021/08/27 04:23:49;;;;;;;11.73;2.63;;;;;;;10.77;96.65;102078.22;5013127;28;20030;-72
2021/08/27 04:26:16;;;;;;;13.27;2.78;;;;;;;10.69;96.44;102091.22;5012874;28;20030;-72
2021/08/27 04:28:42;;;;;;;12.02;2.20;;;;;;;10.58;95.86;102084.88;5013445;28;20041;-72
2021/08/27 04:31:07;;;;;;;15.98;2.63;;;;;;;10.48;95.76;102089.13;5012598;28;20030;-73
2021/08/27 04:33:32;;;;;;;15.88;2.38;;;;;;;10.39;95.95;102092.44;5013417;28;20042;-73
2021/08/27 04:35:58;;;;;;;19.23;2.45;;;;;;;10.29;95.88;102088.69;5013026;28;20492;-72
2021/08/27 04:38:23;;;;;;;9.65;2.40;;;;;;;10.20;95.66;102092.81;5012699;28;20069;-72
2021/08/27 04:40:48;;;;;;;10.27;2.80;;;;;;;10.12;95.89;102089.84;5013209;28;20030;-72
2021/08/27 04:43:14;;;;;;;7.65;2.13;;;;;;;10.05;95.82;102086.75;5012247;28;20037;-72
2021/08/27 04:45:39;;;;;;;11.65;2.35;;;;;;;10.00;95.75;102099.50;4995635;28;20121;-72
2021/08/27 04:48:06;;;;;;;11.52;2.28;;;;;;;9.95;95.81;102094.50;5012587;28;20042;-72
2021/08/27 04:50:31;;;;;;;9.52;2.33;;;;;;;9.92;96.21;102093.88;5013132;28;20128;-72
2021/08/27 04:52:57;;;;;;;12.15;2.95;;;;;;;9.92;96.52;102091.22;4995274;28;20072;-73
2021/08/27 04:55:22;;;;;;;13.68;3.13;;;;;;;9.87;96.59;102097.69;5011360;28;20749;-73
2021/08/27 04:57:47;;;;;;;15.02;3.17;;;;;;;9.81;96.58;102094.59;5012995;28;20408;-73
2021/08/27 05:00:13;;;;;;;10.52;2.97;;;;;;;9.80;96.69;102099.03;5012375;28;20036;-73
2021/08/27 05:02:39;;;;;;;9.45;3.20;;;;;;;9.79;96.86;102102.69;5013000;28;20034;-73
2021/08/27 05:05:05;;;;;;;11.13;2.70;;;;;;;9.78;96.92;102105.41;5011968;28;20057;-75
2021/08/27 05:07:31;;;;;;;11.35;3.50;;;;;;;9.82;96.96;102098.94;4995495;28;20076;-73
2021/08/27 05:09:56;;;;;;;13.32;3.00;;;;;;;9.88;97.08;102112.69;5012791;28;20547;-73
2021/08/27 05:12:22;;;;;;;11.52;3.53;;;;;;;9.95;97.43;102105.13;5012220;28;20034;-72
2021/08/27 05:14:47;;;;;;;11.65;3.45;;;;;;;10.02;97.47;102102.94;4995442;28;20374;-72
2021/08/27 05:17:12;;;;;;;14.65;3.42;;;;;;;10.06;97.55;102104.41;5011925;28;20123;-73
2021/08/27 05:19:38;;;;;;;14.93;3.15;;;;;;;10.14;97.60;102095.91;5012478;28;20033;-73
2021/08/27 05:22:03;;;;;;;11.68;3.33;;;;;;;10.21;97.52;102103.38;4995092;28;20386;-73
2021/08/27 05:24:29;;;;;;;14.32;3.10;;;;;;;10.24;97.66;102111.13;5012202;28;20084;-71
2021/08/27 05:26:54;;;;;;;8.38;3.30;;;;;;;10.29;97.90;102115.28;5012677;28;20034;-72
2021/08/27 05:29:20;;;;;;;19.38;4.10;;;;;;;10.38;97.70;102114.69;5011892;28;20042;-73
2021/08/27 05:31:46;;;;;;;15.75;4.13;;;;;;;10.58;98.18;102119.47;5012537;28;20109;-73
2021/08/27 05:34:11;;;;;;;13.63;4.20;;;;;;;10.73;98.27;102109.53;5011903;28;20121;-73
2021/08/27 05:36:36;;;;;;;19.23;3.65;;;;;;;10.89;98.07;102116.41;5012566;28;20037;-73
2021/08/27 05:39:03;;;;;;;18.63;4.05;;;;;;;10.99;98.26;102114.81;5012673;28;20041;-73
2021/08/27 05:41:29;;;;;;;12.52;3.85;;;;;;;11.04;98.43;102109.13;5011926;28;20352;-73
2021/08/27 05:43:55;;;;;;;15.35;3.28;;;;;;;11.02;98.45;102117.25;5013142;28;20111;-73
2021/08/27 05:46:20;;;;;;;15.07;3.33;;;;;;;10.98;98.04;102120.25;4994685;28;20442;-74
2021/08/27 05:48:45;;;;;;;13.38;3.22;;;;;;;10.92;98.20;102122.38;5012473;28;20030;-73
2021/08/27 05:51:11;;;;;;;18.10;3.35;;;;;;;10.90;97.84;102126.97;5012468;28;20038;-74
2021/08/27 05:53:36;;;;;;;16.08;3.40;;;;;;;10.92;98.15;102127.69;5012966;28;20095;-73
2021/08/27 05:56:01;;;;;;;13.80;3.05;;;;;;;11.04;98.09;102130.44;5013185;28;20042;-73
2021/08/27 05:58:28;;;;;;;12.63;3.15;;;;;;;11.15;98.07;102127.00;5012371;28;20096;-73
2021/08/27 06:00:56;;;;;;;17.13;3.05;;;;;;;11.18;97.88;102127.66;5012552;28;20120;-73
2021/08/27 06:03:21;;;;;;;21.52;3.22;;;;;;;11.20;97.70;102128.38;5012226;28;20026;-73
2021/08/27 06:05:46;;;;;;;15.05;3.10;;;;;;;11.24;97.80;102132.53;5013400;28;20044;-73
2021/08/27 06:08:12;;;;;;;14.48;2.63;;;;;;;11.28;97.73;102139.31;5015429;28;20117;-74
2021/08/27 06:10:37;;;;;;;15.95;2.50;;;;;;;11.32;97.82;102139.94;5016113;28;20351;-72
2021/08/27 06:13:03;;;;;;;19.85;2.92;;;;;;;11.38;97.59;102141.31;5015673;28;20164;-73
2021/08/27 06:15:29;;;;;;;9.05;2.75;;;;;;;11.44;97.73;102135.53;5015185;28;20034;-73
2021/08/27 06:17:54;;;;;;;14.10;2.95;;;;;;;11.55;97.57;102134.75;5016030;28;20037;-72
2021/08/27 06:20:20;;;;;;;12.90;2.95;;;;;;;11.68;97.47;102134.69;5015104;28;20030;-73
2021/08/27 06:22:45;;;;;;;10.98;2.53;;;;;;;11.77;97.52;102129.50;5015676;28;20088;-72
2021/08/27 06:25:11;;;;;;;15.35;2.50;;;;;;;11.78;97.32;102131.22;5015816;28;20092;-73
2021/08/27 06:27:36;;;;;;;12.77;2.70;;;;;;;11.78;97.02;102133.03;5015079;28;20030;-73
2021/08/27 06:30:05;;;;;;;15.77;2.30;;;;;;;11.78;96.60;102131.22;5015584;28;20030;-73
2021/08/27 06:32:31;;;;;;;14.85;2.58;;;;;;;11.85;96.66;102139.59;5015015;28;20382;-73
2021/08/27 06:34:56;;;;;;;13.65;2.70;;;;;;;11.89;96.27;102143.72;5015633;28;20038;-73
2021/08/27 06:38:20;;;;;;;14.23;3.22;;;;;;;11.94;96.25;102138.94;5014954;28;20374;-73
2021/08/27 06:40:09;;;;;;;8.93;3.75;;;;;;;12.01;96.02;102138.47;5015029;28;20046;-74
2021/08/27 06:42:34;;;;;;;7.15;2.50;;;;;;;12.08;95.48;102137.88;5014794;28;20038;-74
2021/08/27 06:45:00;;;;;;;14.38;2.53;;;;;;;12.20;95.09;102136.09;5015411;28;20041;-73
2021/08/27 06:47:26;;;;;;;11.57;2.63;;;;;;;12.42;93.18;102139.75;5014546;28;20036;-74
2021/08/27 06:49:51;;;;;;;7.95;1.88;;;;;;;12.56;92.40;102144.88;4997756;28;20391;-74
2021/08/27 06:52:16;;;;;;;6.50;1.63;;;;;;;12.70;91.99;102139.31;5015094;28;20117;-75
2021/08/27 06:54:42;;;;;;;10.57;1.90;;;;;;;12.89;91.26;102143.19;5014939;28;20061;-72
2021/08/27 06:57:07;;;;;;;4.53;1.85;;;;;;;13.07;89.67;102140.84;5015300;28;20049;-73
2021/08/27 06:59:32;;;;;;;11.13;1.60;;;;;;;13.29;89.16;102141.78;5014499;28;20449;-75
2021/08/27 07:01:58;;;;;;;7.68;1.92;;;;;;;13.47;86.27;102145.66;5014843;28;20029;-74
2021/08/27 07:04:24;;;;;;;9.50;1.95;;;;;;;13.58;86.33;102148.31;5014252;28;20419;-73
2021/08/27 07:06:50;;;;;;;6.32;1.70;;;;;;;13.65;86.10;102145.13;5015078;28;20034;-72
2021/08/27 07:09:15;;;;;;;8.07;1.60;;;;;;;13.73;85.57;102156.00;5015037;28;20429;-73
2021/08/27 07:11:40;;;;;;;11.77;1.90;;;;;;;13.84;81.72;102144.41;5014414;28;20044;-72
2021/08/27 07:14:06;;;;;;;7.80;1.48;;;;;;;14.02;81.70;102158.94;5014715;28;20132;-72
2021/08/27 07:16:32;;;;;;;11.88;1.90;;;;;;;14.10;80.49;102156.44;5013568;28;20088;-73
2021/08/27 07:18:58;;;;;;;5.50;1.52;;;;;;;14.26;81.57;102163.19;5014403;28;20038;-72
2021/08/27 07:21:23;;;;;;;5.38;1.80;;;;;;;14.44;81.77;102160.75;5013995;28;20044;-72
2021/08/27 07:23:48;;;;;;;8.88;1.80;;;;;;;14.62;77.08;102153.81;5014368;28;20077;-72
2021/08/27 07:26:14;;;;;;;9.90;1.70;;;;;;;14.85;77.05;102166.19;5014678;28;20036;-72
2021/08/27 07:28:39;;;;;;;7.28;1.77;;;;;;;14.92;77.49;102165.50;5013726;28;20058;-72
2021/08/27 07:31:04;;;;;;;8.13;1.45;;;;;;;14.85;76.79;102160.81;5014640;28;20472;-72
2021/08/27 07:33:30;;;;;;;6.55;1.80;;;;;;;14.88;77.01;102160.56;5013752;28;20110;-72
2021/08/27 07:35:55;;;;;;;13.90;2.00;;;;;;;14.95;76.99;102169.75;5014503;28;20045;-72
2021/08/27 07:38:22;;;;;;;4.80;1.55;;;;;;;15.01;76.06;102171.06;5014134;28;20087;-72
2021/08/27 07:40:47;;;;;;;8.30;1.70;;;;;;;15.05;76.64;102169.78;5014434;28;20034;-72
2021/08/27 07:43:12;;;;;;;11.40;1.85;;;;;;;15.13;73.65;102168.13;5014331;28;20030;-73
2021/08/27 07:45:38;;;;;;;5.65;1.70;;;;;;;15.20;72.31;102164.88;5013619;28;20058;-72
2021/08/27 07:48:03;;;;;;;4.70;1.70;;;;;;;15.32;73.11;102175.38;5014211;28;20026;-72
2021/08/27 07:50:29;;;;;;;14.25;2.35;;;;;;;15.51;72.29;102171.88;5013537;28;20115;-72
2021/08/27 07:52:54;;;;;;;8.88;2.15;;;;;;;15.69;72.72;102174.72;5014186;28;20123;-72
2021/08/27 07:55:22;;;;;;;6.43;1.85;;;;;;;15.80;72.54;102180.97;5013684;28;20098;-72
2021/08/27 07:57:47;;;;;;;5.95;1.90;;;;;;;15.91;71.69;102180.81;5013620;28;20417;-73
2021/08/27 08:00:13;;;;;;;10.82;2.00;;;;;;;15.97;70.85;102184.78;5013932;28;20045;-72
2021/08/27 08:02:39;;;;;;;5.40;2.03;;;;;;;16.13;71.39;102189.56;5013363;28;20026;-72
2021/08/27 08:05:05;;;;;;;8.13;2.00;;;;;;;16.24;69.43;102180.50;5013617;28;20372;-72
2021/08/27 08:07:30;;;;;;;7.47;1.98;;;;;;;16.27;68.85;102188.28;5013252;28;20030;-72
2021/08/27 08:09:55;;;;;;;8.43;2.08;;;;;;;16.55;67.11;102179.28;5013650;28;20040;-73
2021/08/27 08:12:21;;;;;;;13.20;3.25;;;;;;;16.75;65.98;102181.94;5013877;28;20026;-74
2021/08/27 08:14:46;;;;;;;5.82;1.95;;;;;;;16.85;64.42;102187.25;4995587;28;20065;-73
2021/08/27 08:17:11;;;;;;;10.00;2.83;;;;;;;16.89;64.56;102186.84;5013548;28;20033;-71
2021/08/27 08:19:37;;;;;;;7.60;2.33;;;;;;;17.06;63.76;102187.94;5013031;28;20077;-72
2021/08/27 08:22:03;;;;;;;11.43;2.80;;;;;;;17.49;63.52;102179.31;5013447;28;20037;-73
2021/08/27 08:24:28;;;;;;;10.00;2.92;;;;;;;18.24;63.11;102187.06;5012948;28;20037;-73
2021/08/27 08:26:53;;;;;;;7.25;2.70;;;;;;;18.92;59.01;102180.94;5013463;28;20037;-73
2021/08/27 08:29:19;;;;;;;9.82;2.28;;;;;;;19.34;57.23;102185.47;5012982;28;20034;-72
2021/08/27 08:31:46;;;;;;;8.48;2.45;;;;;;;19.22;56.60;102192.19;5012525;28;20030;-73
2021/08/27 08:34:11;;;;;;;7.32;2.28;;;;;;;19.49;56.58;102192.94;5013297;28;20045;-73
2021/08/27 08:36:37;;;;;;;10.55;2.47;;;;;;;19.43;55.63;102193.59;5012775;28;20096;-72
2021/08/27 08:39:04;;;;;;;11.48;2.60;;;;;;;19.05;56.46;102193.13;5012999;28;20034;-74
2021/08/27 08:41:30;;;;;;;11.50;3.00;;;;;;;18.58;58.83;102194.38;5012482;28;20033;-73
2021/08/27 08:43:55;;;;;;;10.45;2.70;;;;;;;18.18;59.43;102188.53;5013198;28;20502;-78
2021/08/27 08:46:22;;;;;;;13.93;2.70;;;;;;;18.06;60.20;102193.31;5013224;28;20069;-76
2021/08/27 08:48:50;;;;;;;7.75;2.40;;;;;;;18.36;57.40;102198.44;5012848;28;20354;-74
2021/08/27 08:51:18;;;;;;;10.85;2.50;;;;;;;18.51;58.38;102191.47;5012833;28;20065;-75
2021/08/27 08:53:49;;;;;;;7.72;2.30;;;;;;;18.44;59.50;102193.13;5012123;28;20038;-75
2021/08/27 08:56:15;;;;;;;12.73;3.20;;;;;;;18.51;59.68;102194.16;5013356;28;20081;-74
2021/08/27 08:58:40;;;;;;;9.73;2.42;;;;;;;19.14;58.07;102193.00;5012093;28;20057;-76
2021/08/27 09:01:07;;;;;;;7.28;2.47;;;;;;;19.98;54.71;102193.03;5013005;28;20029;-74
2021/08/27 09:03:32;;;;;;;7.30;2.20;;;;;;;20.60;51.12;102183.47;5012266;28;20168;-75
2021/08/27 09:05:57;;;;;;;6.40;2.20;;;;;;;21.37;47.67;102193.69;5012827;28;20113;-72
2021/08/27 09:08:32;;;;;;;6.60;2.15;;;;;;;21.86;48.40;102191.72;5012660;28;20137;-72
2021/08/27 09:10:58;;;;;;;13.90;2.63;;;;;;;20.58;51.41;102194.47;5012452;28;20030;-74
2021/08/27 09:13:30;;;;;;;7.18;2.42;;;;;;;19.67;54.27;102200.91;5012476;28;20492;-73
2021/08/27 09:16:04;;;;;;;8.43;2.50;;;;;;;18.75;57.87;102198.00;5012225;28;20032;-73
2021/08/27 09:18:36;;;;;;;12.30;3.08;;;;;;;18.41;58.70;102201.53;5012559;28;20481;-72
2021/08/27 09:21:32;;;;;;;8.73;2.97;;;;;;;18.57;57.98;102198.94;5012712;28;20030;-73
2021/08/27 09:24:19;;;;;;;11.15;2.90;;;;;;;18.11;60.33;102200.97;5012319;28;20121;-72
2021/08/27 09:27:04;;;;;;;11.63;2.92;;;;;;;18.50;60.67;102196.03;4994412;28;20030;-72
2021/08/27 09:29:33;;;;;;;11.07;2.72;;;;;;;19.08;57.55;102198.19;5012338;28;20033;-72
2021/08/27 09:31:59;;;;;;;9.50;2.92;;;;;;;19.38;56.89;102207.59;5011591;28;20386;-72
2021/08/27 09:34:29;;;;;;;7.38;2.78;;;;;;;21.02;50.14;102195.91;5012411;28;20026;-73
2021/08/27 09:36:57;;;;;;;7.55;2.63;;;;;;;22.93;47.53;102196.94;4978140;28;20382;-72
2021/08/27 09:39:30;;;;;;;9.57;2.58;;;;;;;24.05;44.80;102205.72;5012147;28;20060;-72
2021/08/27 09:41:57;;;;;;;10.73;2.67;;;;;;;23.57;44.10;102187.25;5015360;28;20251;-73
2021/08/27 09:44:23;;;;;;;9.43;2.33;;;;;;;23.03;43.94;102197.47;5016575;28;20084;-73
2021/08/27 09:46:48;;;;;;;7.90;2.50;;;;;;;22.80;44.86;102197.59;5015581;28;20534;-75
2021/08/27 09:49:32;;;;;;;10.20;2.55;;;;;;;23.63;43.37;102191.09;5016128;28;20034;-73
2021/08/27 09:51:59;;;;;;;7.35;2.13;;;;;;;24.31;41.72;102185.25;5015510;28;20689;-74
2021/08/27 09:54:29;;;;;;;13.57;2.55;;;;;;;24.72;41.60;102192.63;5016214;28;20037;-75
2021/08/27 09:57:07;;;;;;;12.10;2.90;;;;;;;25.28;39.68;102191.63;5015837;28;20056;-76
2021/08/27 09:59:55;;;;;;;7.00;2.45;;;;;;;25.09;40.04;102193.22;5016101;28;20176;-75
2021/08/27 10:02:33;;;;;;;10.50;2.58;;;;;;;24.92;40.17;102193.59;5016768;28;20029;-75
2021/08/27 10:05:00;;;;;;;11.55;2.42;;;;;;;24.59;40.35;102196.97;5015522;28;20317;-76
2021/08/27 10:07:30;;;;;;;13.80;2.95;;;;;;;24.95;40.99;102189.63;5016283;28;20565;-76
2021/08/27 10:10:00;;;;;;;10.95;2.88;;;;;;;25.27;41.28;102192.66;5015566;28;20022;-74
2021/08/27 10:12:27;;;;;;;9.73;2.50;;;;;;;25.16;40.32;102183.22;5016125;28;20033;-72
2021/08/27 10:14:53;;;;;;;11.13;2.67;;;;;;;25.05;39.94;102178.34;5015517;28;20087;-72
2021/08/27 10:17:19;;;;;;;9.43;2.95;;;;;;;24.73;41.15;102183.44;5016004;28;20029;-72
2021/08/27 10:19:45;;;;;;;8.25;2.67;;;;;;;24.45;42.36;102184.28;5014971;28;20030;-73
2021/08/27 10:22:11;;;;;;;11.07;2.65;;;;;;;23.93;43.14;102191.81;5015752;28;20072;-72
2021/08/27 10:24:37;;;;;;;8.10;2.60;;;;;;;23.94;42.53;102185.34;5015883;28;20037;-75
2021/08/27 10:27:07;;;;;;;11.55;2.67;;;;;;;23.87;42.05;102181.72;5015164;28;20040;-76
2021/08/27 10:29:33;;;;;;;15.27;3.30;;;;;;;24.33;42.24;102175.81;4998255;28;20034;-76
2021/08/27 10:31:59;;;;;;;10.82;2.70;;;;;;;24.39;42.67;102175.06;5015093;28;20038;-74
2021/08/27 10:34:42;;;;;;;9.32;2.20;;;;;;;23.54;42.99;102182.22;5015460;28;20030;-74
2021/08/27 10:37:09;;;;;;;9.05;2.35;;;;;;;23.49;43.98;102182.81;5014945;28;20026;-74
2021/08/27 10:39:40;;;;;;;10.93;2.58;;;;;;;24.32;41.72;102178.75;5015498;28;20513;-74
2021/08/27 10:42:07;;;;;;;9.55;2.50;;;;;;;24.24;41.06;102182.47;5014943;28;20160;-75
2021/08/27 10:44:58;;;;;;;8.68;2.08;;;;;;;24.44;39.87;102178.00;5015406;28;20502;-72
2021/08/27 10:47:24;;;;;;;10.25;2.45;;;;;;;25.13;39.76;102176.28;5011739;28;20060;-72
2021/08/27 10:49:49;;;;;;;6.85;2.40;;;;;;;25.22;39.83;102173.38;5014260;28;20042;-72
2021/08/27 10:52:33;;;;;;;8.15;2.28;;;;;;;25.37;37.88;102175.97;5015217;28;20478;-72
2021/08/27 10:55:15;;;;;;;11.25;2.50;;;;;;;24.93;39.31;102176.22;5014349;28;20474;-72
2021/08/27 10:57:57;;;;;;;9.20;2.25;;;;;;;24.67;40.46;102168.75;5015185;28;20501;-71
2021/08/27 11:00:34;;;;;;;7.25;2.53;;;;;;;24.48;40.86;102170.28;5014990;28;20494;-71
2021/08/27 11:03:00;;;;;;;11.68;2.33;;;;;;;24.86;38.67;102171.78;4997178;28;20062;-71
2021/08/27 11:05:31;;;;;;;12.73;2.42;;;;;;;24.74;39.57;102166.91;4997652;28;20368;-72
2021/08/27 11:08:01;;;;;;;9.20;2.70;;;;;;;24.93;39.28;102173.50;5014920;28;20101;-73
2021/08/27 11:10:27;;;;;;;9.13;2.45;;;;;;;24.96;39.33;102183.97;5015129;28;20125;-73
2021/08/27 11:13:00;;;;;;;8.93;2.22;;;;;;;25.07;39.20;102173.53;5014499;28;20065;-74
2021/08/27 11:15:30;;;;;;;8.88;2.33;;;;;;;25.26;39.02;102172.78;5014736;28;20076;-75
2021/08/27 11:18:04;;;;;;;6.88;2.20;;;;;;;25.24;38.19;102176.75;5014396;28;20036;-72
2021/08/27 11:20:30;;;;;;;8.20;2.15;;;;;;;25.87;37.20;102169.13;5014683;28;20374;-73
2021/08/27 11:22:55;;;;;;;9.15;2.30;;;;;;;25.84;36.66;102165.97;5014315;28;20038;-74
2021/08/27 11:25:23;;;;;;;6.68;2.20;;;;;;;25.62;36.98;102178.97;5015020;28;20045;-72